Time;durP1;ratioP1;P1;durP2;ratioP2;P2;SDS_P1;SDS_P2;PMS_P1;PMS_P2;Temp;Humidity;BMP_temperature;BMP_pressure;BME280_temperature;BME280_humidity;BME280_pressure;Samples;Min_cycle;Max_cycle;Signal;HPM_P1;HPM_P2
2022/05/19 00:02:23;;;;;;;1.77;1.20;;;;;;;8.71;100.00;99363.84;6240253;22;20149;-59
2022/05/19 00:04:49;;;;;;;1.02;0.93;;;;;;;8.62;100.00;99367.66;6239269;22;20499;-59
2022/05/19 00:07:15;;;;;;;1.58;0.90;;;;;;;8.74;100.00;99368.88;6225764;22;20481;-59
2022/05/19 00:09:41;;;;;;;2.20;1.20;;;;;;;8.64;100.00;99363.31;6228095;22;20153;-59
2022/05/19 00:12:10;;;;;;;0.98;0.98;;;;;;;8.72;100.00;99366.34;6235776;22;20177;-59
2022/05/19 00:14:36;;;;;;;3.40;1.35;;;;;;;8.79;100.00;99377.25;6240207;22;20145;-59
2022/05/19 00:17:01;;;;;;;4.07;1.02;;;;;;;8.76;100.00;99385.09;6239951;22;20191;-59
2022/05/19 00:19:27;;;;;;;1.75;1.20;;;;;;;8.82;100.00;99377.94;6240151;22;20192;-59
2022/05/19 00:21:53;;;;;;;2.20;1.35;;;;;;;8.71;100.00;99384.47;6239822;22;20152;-59
2022/05/19 00:24:19;;;;;;;1.40;1.30;;;;;;;8.63;100.00;99381.41;6239995;22;20149;-59
2022/05/19 00:26:44;;;;;;;3.45;1.30;;;;;;;8.66;100.00;99386.44;6233410;22;20211;-59
2022/05/19 00:29:10;;;;;;;2.65;1.20;;;;;;;8.60;100.00;99379.81;6225837;22;20653;-59
2022/05/19 00:31:36;;;;;;;3.17;1.05;;;;;;;8.61;100.00;99378.06;6228705;22;20180;-59
2022/05/19 00:34:02;;;;;;;1.33;1.10;;;;;;;8.64;100.00;99383.94;6239113;22;20153;-58
2022/05/19 00:36:29;;;;;;;1.20;1.10;;;;;;;8.62;100.00;99384.91;6239921;22;20155;-59
2022/05/19 00:38:55;;;;;;;2.92;1.50;;;;;;;8.74;100.00;99385.16;6237853;23;20610;-59
2022/05/19 00:41:21;;;;;;;2.60;1.00;;;;;;;8.79;100.00;99388.38;6238230;23;20149;-59
2022/05/19 00:43:57;;;;;;;2.20;0.93;;;;;;;8.79;100.00;99378.06;6239710;22;20160;-59
2022/05/19 00:46:32;;;;;;;2.40;0.90;;;;;;;8.81;100.00;99381.44;6239935;22;20251;-59
2022/05/19 00:49:13;;;;;;;2.63;1.15;;;;;;;8.83;100.00;99379.59;6226490;22;21083;-59
2022/05/19 00:52:00;;;;;;;0.90;0.90;;;;;;;8.78;100.00;99371.22;6227583;22;20368;-59
2022/05/19 00:54:35;;;;;;;1.40;0.80;;;;;;;8.86;100.00;99363.16;6236910;22;20144;-59
2022/05/19 00:57:28;;;;;;;0.95;0.88;;;;;;;8.99;100.00;99380.56;6239264;22;20204;-59
2022/05/19 01:00:29;;;;;;;3.00;1.10;;;;;;;9.14;100.00;99379.84;6239500;22;20208;-59
2022/05/19 01:03:00;;;;;;;2.30;1.00;;;;;;;9.10;100.00;99388.63;6146342;23;20165;-59
2022/05/19 01:05:41;;;;;;;4.50;1.00;;;;;;;9.14;100.00;99379.84;6223600;22;20153;-59
2022/05/19 01:08:41;;;;;;;0.90;0.90;;;;;;;9.12;100.00;99380.81;6237220;22;20200;-59
2022/05/19 01:11:07;;;;;;;2.75;0.90;;;;;;;9.13;100.00;99372.16;6226225;22;20527;-59
2022/05/19 01:13:35;;;;;;;1.50;1.13;;;;;;;9.08;100.00;99369.81;6228515;22;20180;-60
2022/05/19 01:16:03;;;;;;;1.98;0.98;;;;;;;8.96;100.00;99375.53;6238743;22;20145;-59
2022/05/19 01:18:30;;;;;;;2.75;0.98;;;;;;;8.84;100.00;99360.63;6239357;22;20639;-59
2022/05/19 01:20:56;;;;;;;1.40;1.08;;;;;;;8.90;100.00;99365.50;6239150;22;20141;-59
2022/05/19 01:23:49;;;;;;;1.95;1.10;;;;;;;8.90;100.00;99369.81;6239426;22;20481;-59
2022/05/19 01:26:28;;;;;;;1.13;0.95;;;;;;;8.92;100.00;99363.69;6230255;23;20192;-59
2022/05/19 01:29:00;;;;;;;4.63;0.90;;;;;;;8.92;100.00;99368.84;6238905;22;20191;-59
2022/05/19 01:31:26;;;;;;;2.67;1.00;;;;;;;8.80;100.00;99364.25;6225218;22;20598;-59
2022/05/19 01:33:52;;;;;;;1.77;1.23;;;;;;;8.82;100.00;99367.63;6227462;22;20424;-58
2022/05/19 01:36:17;;;;;;;3.65;0.90;;;;;;;8.85;100.00;99359.72;6235357;23;20539;-59
2022/05/19 01:38:43;;;;;;;2.33;1.00;;;;;;;8.83;100.00;99371.88;6239518;23;20182;-59
2022/05/19 01:41:19;;;;;;;0.90;0.82;;;;;;;8.78;100.00;99370.38;6239059;22;20591;-59
2022/05/19 01:43:59;;;;;;;2.88;1.20;;;;;;;8.77;100.00;99369.56;6239034;22;20143;-59
2022/05/19 01:46:31;;;;;;;3.40;0.80;;;;;;;8.72;100.00;99358.63;6238887;22;20149;-60
2022/05/19 01:49:03;;;;;;;4.28;0.90;;;;;;;8.73;100.00;99356.88;6238899;22;20141;-59
2022/05/19 01:51:39;;;;;;;0.98;0.98;;;;;;;8.87;100.00;99365.66;6228766;23;20355;-59
2022/05/19 01:54:33;;;;;;;4.22;0.88;;;;;;;8.98;100.00;99365.16;6226112;22;20186;-59
2022/05/19 01:57:31;;;;;;;7.47;1.08;;;;;;;9.07;100.00;99368.13;6224618;22;20196;-58
2022/05/19 02:00:21;;;;;;;5.28;0.90;;;;;;;8.93;100.00;99369.69;6207251;22;20157;-59
2022/05/19 02:03:02;;;;;;;0.95;0.90;;;;;;;8.95;100.00;99362.69;6239140;22;20283;-59
2022/05/19 02:06:04;;;;;;;1.23;0.82;;;;;;;8.85;100.00;99359.72;6238675;22;20138;-59
2022/05/19 02:08:31;;;;;;;1.20;1.10;;;;;;;8.84;100.00;99365.78;6238852;23;20194;-59
2022/05/19 02:11:01;;;;;;;1.00;1.00;;;;;;;8.76;100.00;99362.72;6237914;22;20188;-59
2022/05/19 02:13:30;;;;;;;2.35;1.00;;;;;;;8.67;100.00;99373.47;6224604;22;20196;-59
2022/05/19 02:16:00;;;;;;;2.60;0.90;;;;;;;8.58;100.00;99373.03;6226767;22;20575;-59
2022/05/19 02:18:27;;;;;;;4.78;1.30;;;;;;;8.54;100.00;99369.78;6235403;22;20145;-59
2022/05/19 02:20:55;;;;;;;2.22;1.00;;;;;;;8.42;100.00;99367.75;6239012;22;20622;-59
2022/05/19 02:23:21;;;;;;;3.50;1.10;;;;;;;8.41;100.00;99371.22;6238657;22;20219;-59
2022/05/19 02:25:49;;;;;;;2.65;1.05;;;;;;;8.42;100.00;99370.31;6238723;22;20222;-59
2022/05/19 02:28:30;;;;;;;2.40;1.00;;;;;;;8.36;100.00;99367.16;6238777;22;20219;-59
2022/05/19 02:30:56;;;;;;;2.40;1.05;;;;;;;8.32;100.00;99370.81;6238412;22;20664;-59
2022/05/19 02:33:22;;;;;;;0.90;0.80;;;;;;;8.28;100.00;99375.25;6230234;22;20176;-59
2022/05/19 02:35:47;;;;;;;2.25;1.00;;;;;;;8.30;100.00;99373.44;6226038;22;20638;-58
2022/05/19 02:38:14;;;;;;;5.72;1.30;;;;;;;8.22;100.00;99372.94;6229197;22;20340;-59
2022/05/19 02:40:41;;;;;;;3.55;0.95;;;;;;;8.21;100.00;99378.19;6238926;22;20152;-58
2022/05/19 02:43:08;;;;;;;3.55;0.90;;;;;;;8.24;100.00;99378.03;6238707;22;20149;-58
2022/05/19 02:45:34;;;;;;;1.55;0.85;;;;;;;8.24;100.00;99389.19;6238999;22;20204;-59
2022/05/19 02:48:00;;;;;;;3.35;1.10;;;;;;;8.35;100.00;99386.97;6238569;22;20203;-59
2022/05/19 02:50:26;;;;;;;1.00;0.80;;;;;;;8.44;100.00;99388.31;6238873;22;20157;-59
2022/05/19 02:52:52;;;;;;;4.22;1.23;;;;;;;8.49;100.00;99394.94;6240714;22;20881;-59
2022/05/19 02:55:18;;;;;;;1.15;1.08;;;;;;;8.50;100.00;99383.69;6226704;22;20510;-59
2022/05/19 02:57:44;;;;;;;3.03;1.67;;;;;;;8.41;100.00;99389.28;6226452;22;20199;-59
2022/05/19 03:00:16;;;;;;;3.67;1.30;;;;;;;8.44;100.00;99391.72;6235873;22;20145;-58
2022/05/19 03:02:41;;;;;;;1.23;1.10;;;;;;;8.54;100.00;99386.97;6240647;22;20133;-59
2022/05/19 03:05:09;;;;;;;0.90;0.90;;;;;;;8.48;100.00;99388.09;6240555;22;20781;-58
2022/05/19 03:07:34;;;;;;;2.25;1.42;;;;;;;8.53;100.00;99386.16;6240487;22;20259;-59
2022/05/19 03:10:00;;;;;;;3.67;1.20;;;;;;;8.56;100.00;99383.44;6240349;22;20149;-59
2022/05/19 03:12:25;;;;;;;2.05;0.80;;;;;;;8.54;100.00;99381.81;6240335;23;20208;-59
2022/05/19 03:14:51;;;;;;;1.50;0.90;;;;;;;8.73;100.00;99380.09;6235359;23;20149;-59
2022/05/19 03:17:16;;;;;;;2.15;1.00;;;;;;;8.71;100.00;99390.50;6226675;23;20602;-59
2022/05/19 03:19:41;;;;;;;1.42;1.10;;;;;;;8.73;100.00;99393.81;6229242;23;20151;-58
2022/05/19 03:22:07;;;;;;;0.88;0.82;;;;;;;8.71;100.00;99385.31;6239201;22;20152;-58
2022/05/19 03:24:33;;;;;;;2.10;0.98;;;;;;;8.76;100.00;99398.88;6240672;22;20236;-59
2022/05/19 03:26:58;;;;;;;0.90;0.90;;;;;;;8.91;100.00;99392.97;6240445;22;20492;-59
2022/05/19 03:29:24;;;;;;;1.52;0.88;;;;;;;8.91;100.00;99397.31;6240360;22;20149;-59
2022/05/19 03:31:50;;;;;;;0.70;0.70;;;;;;;8.88;100.00;99387.97;6238815;23;20543;-59
2022/05/19 03:34:17;;;;;;;1.25;0.75;;;;;;;8.94;100.00;99392.84;6240426;22;20153;-59
2022/05/19 03:36:44;;;;;;;1.50;0.80;;;;;;;9.05;100.00;99406.09;6230012;22;20251;-59
2022/05/19 03:39:09;;;;;;;2.58;0.90;;;;;;;8.97;100.00;99391.88;6228011;22;20153;-59
2022/05/19 03:41:35;;;;;;;1.95;1.00;;;;;;;9.05;100.00;99406.09;6232387;22;20579;-58
2022/05/19 03:44:00;;;;;;;3.13;0.90;;;;;;;9.20;100.00;99405.38;6240097;22;20161;-59
2022/05/19 03:46:26;;;;;;;2.85;0.80;;;;;;;9.16;100.00;99401.28;6240192;22;20185;-59
2022/05/19 03:48:52;;;;;;;7.07;1.20;;;;;;;9.13;100.00;99400.56;6239729;22;20149;-59
2022/05/19 03:51:22;;;;;;;2.33;0.90;;;;;;;9.26;100.00;99409.41;6240084;22;20211;-59
2022/05/19 03:53:49;;;;;;;0.95;0.80;;;;;;;9.28;99.62;99408.44;6240143;22;20136;-59
2022/05/19 03:56:14;;;;;;;0.90;0.85;;;;;;;9.37;100.00;99410.56;6238704;22;20200;-59
2022/05/19 03:58:40;;;;;;;2.10;1.00;;;;;;;9.43;99.78;99418.03;6225705;23;20176;-59
2022/05/19 04:01:06;;;;;;;2.42;1.00;;;;;;;9.59;99.33;99403.47;6228281;23;20473;-59
2022/05/19 04:03:31;;;;;;;2.47;1.10;;;;;;;9.73;98.39;99406.19;6235929;22;20228;-59
2022/05/19 04:05:57;;;;;;;0.85;0.85;;;;;;;9.86;95.95;99420.22;6240143;22;20498;-59
2022/05/19 04:08:22;;;;;;;1.83;1.00;;;;;;;9.90;96.85;99416.53;6240057;22;20552;-59
2022/05/19 04:10:48;;;;;;;3.08;0.98;;;;;;;9.93;98.68;99404.28;6238132;23;20643;-59
2022/05/19 04:13:14;;;;;;;1.25;1.15;;;;;;;9.86;99.39;99425.38;6238158;23;20165;-59
2022/05/19 04:15:39;;;;;;;4.22;0.80;;;;;;;9.81;99.30;99425.59;6239890;22;20567;-59
2022/05/19 04:18:06;;;;;;;2.15;0.93;;;;;;;9.83;97.10;99430.69;6234222;22;20175;-59
2022/05/19 04:20:32;;;;;;;4.90;0.95;;;;;;;9.71;97.16;99420.94;6226755;22;20592;-59
2022/05/19 04:23:01;;;;;;;2.05;0.90;;;;;;;9.89;95.91;99430.38;6228671;22;20157;-59
2022/05/19 04:25:29;;;;;;;1.80;0.90;;;;;;;10.01;94.63;99432.34;6239441;22;20504;-59
2022/05/19 04:27:54;;;;;;;4.13;1.25;;;;;;;10.10;93.68;99431.94;6239715;22;20611;-59
2022/05/19 04:30:20;;;;;;;2.58;1.10;;;;;;;10.21;93.91;99424.47;6240062;22;20152;-58
2022/05/19 04:32:47;;;;;;;1.13;0.82;;;;;;;10.27;94.30;99408.66;6239653;23;20173;-59
2022/05/19 04:35:13;;;;;;;2.78;0.70;;;;;;;10.42;96.53;99428.53;6237950;23;20500;-59
2022/05/19 04:37:39;;;;;;;1.05;1.00;;;;;;;10.36;98.21;99423.69;6239722;22;20500;-59
2022/05/19 04:40:05;;;;;;;11.27;5.68;;;;;;;10.33;99.09;99423.84;6226256;23;20153;-59
2022/05/19 04:42:31;;;;;;;0.88;0.88;;;;;;;10.32;99.22;99414.38;6226712;22;20188;-59
2022/05/19 04:44:57;;;;;;;3.63;0.73;;;;;;;10.36;98.79;99423.69;6231324;23;20180;-59
2022/05/19 04:47:23;;;;;;;6.70;1.35;;;;;;;10.23;100.00;99412.28;6239381;22;20157;-59
2022/05/19 04:49:49;;;;;;;1.70;0.95;;;;;;;10.37;100.00;99409.81;6239508;22;20153;-59
2022/05/19 04:52:14;;;;;;;4.30;1.15;;;;;;;10.52;97.48;99421.97;6239443;22;20696;-59
2022/05/19 04:54:40;;;;;;;8.10;1.23;;;;;;;10.61;97.68;99424.91;6239155;23;20599;-59
2022/05/19 04:57:07;;;;;;;4.85;1.55;;;;;;;10.87;96.67;99421.78;6239339;22;20208;-59
2022/05/19 04:59:39;;;;;;;3.80;1.05;;;;;;;10.90;97.03;99420.75;6236828;22;20157;-59
2022/05/19 05:02:06;;;;;;;1.92;1.00;;;;;;;10.86;97.69;99429.63;6225921;22;20528;-58
2022/05/19 05:04:32;;;;;;;0.90;0.90;;;;;;;10.97;98.07;99435.06;6227979;22;20604;-59
2022/05/19 05:06:58;;;;;;;1.13;0.75;;;;;;;11.02;97.55;99435.63;6237880;22;20161;-59
2022/05/19 05:09:24;;;;;;;1.10;0.82;;;;;;;10.96;97.56;99428.19;6239697;22;20165;-58
2022/05/19 05:11:50;;;;;;;2.25;1.02;;;;;;;11.09;96.54;99421.47;6239256;22;20173;-59
2022/05/19 05:14:17;;;;;;;2.15;0.90;;;;;;;11.24;96.10;99430.97;6238871;22;20150;-59
2022/05/19 05:16:50;;;;;;;1.00;0.90;;;;;;;11.22;95.35;99428.47;6239164;22;20160;-58
2022/05/19 05:19:22;;;;;;;4.63;0.90;;;;;;;11.12;95.80;99423.88;6239412;22;20130;-59
2022/05/19 05:21:58;;;;;;;1.67;1.00;;;;;;;10.94;97.85;99422.28;6228799;22;20374;-59
2022/05/19 05:24:24;;;;;;;1.35;0.98;;;;;;;11.18;97.84;99426.97;6224933;23;20164;-59
2022/05/19 05:26:50;;;;;;;2.25;0.98;;;;;;;11.20;96.88;99432.91;6232260;22;20604;-59
2022/05/19 05:29:15;;;;;;;0.90;0.85;;;;;;;11.39;97.22;99430.94;6239496;22;20157;-59
2022/05/19 05:31:41;;;;;;;4.63;1.10;;;;;;;11.54;95.75;99430.09;6238942;22;20169;-59
2022/05/19 05:34:07;;;;;;;3.80;1.20;;;;;;;11.53;95.30;99435.38;6239328;22;20153;-59
2022/05/19 05:36:33;;;;;;;3.15;0.88;;;;;;;11.69;95.60;99441.41;6239538;22;20183;-59
2022/05/19 05:38:58;;;;;;;4.50;1.17;;;;;;;11.82;94.64;99430.25;6239106;22;20630;-58
2022/05/19 05:41:25;;;;;;;5.97;1.00;;;;;;;11.94;92.92;99444.25;6237456;22;20176;-58
2022/05/19 05:43:50;;;;;;;1.75;0.90;;;;;;;12.08;91.60;99447.72;6224860;22;20223;-59
2022/05/19 05:46:16;;;;;;;2.42;1.13;;;;;;;12.16;90.33;99447.28;6227712;22;20753;-59
2022/05/19 05:48:46;;;;;;;1.05;0.80;;;;;;;12.22;90.63;99450.38;6235980;22;20162;-59
2022/05/19 05:51:14;;;;;;;0.90;0.90;;;;;;;12.26;90.95;99451.84;6239159;22;20180;-59
2022/05/19 05:53:41;;;;;;;2.38;0.77;;;;;;;12.32;91.16;99445.47;6238857;22;20149;-59
2022/05/19 05:56:09;;;;;;;3.45;0.95;;;;;;;12.30;90.28;99445.56;6238803;22;20239;-59
2022/05/19 05:58:35;;;;;;;0.98;0.90;;;;;;;12.42;90.08;99450.00;6238994;22;20266;-59
2022/05/19 06:01:02;;;;;;;6.13;0.88;;;;;;;12.60;88.74;99446.31;6238802;22;20579;-59
2022/05/19 06:03:28;;;;;;;1.67;0.90;;;;;;;12.63;88.21;99440.09;6230439;22;20153;-59
2022/05/19 06:05:53;;;;;;;1.90;0.90;;;;;;;12.77;88.42;99437.53;6226139;22;20153;-60
2022/05/19 06:08:18;;;;;;;4.57;1.05;;;;;;;12.81;86.49;99438.97;6228964;23;20149;-59
2022/05/19 06:10:45;;;;;;;1.20;0.90;;;;;;;12.96;86.52;99448.47;6238642;22;20327;-59
2022/05/19 06:13:11;;;;;;;1.65;0.80;;;;;;;13.09;86.38;99446.78;6239150;22;20149;-59
2022/05/19 06:15:37;;;;;;;2.15;1.08;;;;;;;13.17;84.74;99454.94;6239132;22;20160;-59
2022/05/19 06:18:03;;;;;;;2.53;0.75;;;;;;;13.30;85.13;99442.84;6238981;22;20550;-59
2022/05/19 06:20:29;;;;;;;2.83;0.77;;;;;;;13.48;84.38;99441.69;6238361;22;20145;-59
2022/05/19 06:22:55;;;;;;;2.67;0.90;;;;;;;13.67;82.03;99444.75;6238747;22;20203;-59
2022/05/19 06:25:23;;;;;;;7.25;1.63;;;;;;;13.69;82.37;99455.88;6223749;23;20836;-59
2022/05/19 06:27:49;;;;;;;3.15;1.13;;;;;;;13.89;80.92;99447.66;6225994;22;20153;-59
2022/05/19 06:30:16;;;;;;;3.67;1.00;;;;;;;14.03;79.94;99447.56;6233337;22;20160;-59
2022/05/19 06:32:43;;;;;;;1.48;1.02;;;;;;;14.08;79.89;99445.50;6238697;22;20612;-59
2022/05/19 06:35:12;;;;;;;1.05;0.80;;;;;;;14.00;80.30;99451.19;6238931;22;20591;-59
2022/05/19 06:37:37;;;;;;;0.70;0.63;;;;;;;14.08;80.24;99455.91;6238668;22;20240;-59
2022/05/19 06:40:04;;;;;;;1.40;0.90;;;;;;;14.27;79.74;99451.16;6238796;22;20176;-59
2022/05/19 06:42:29;;;;;;;4.32;0.75;;;;;;;14.39;79.29;99451.19;6238965;22;20217;-59
2022/05/19 06:44:56;;;;;;;0.88;0.82;;;;;;;14.55;79.02;99448.38;6234071;22;20738;-59
2022/05/19 06:47:22;;;;;;;1.80;0.68;;;;;;;14.78;77.40;99447.63;6225320;22;20149;-59
2022/05/19 06:49:52;;;;;;;0.98;0.98;;;;;;;14.90;76.86;99446.78;6226990;22;20553;-59
2022/05/19 06:52:24;;;;;;;0.80;0.77;;;;;;;14.94;76.60;99454.28;6235718;23;20173;-59
2022/05/19 06:54:52;;;;;;;1.42;1.08;;;;;;;14.93;76.35;99459.63;6238617;22;20187;-59
2022/05/19 06:57:19;;;;;;;1.48;0.80;;;;;;;15.07;76.45;99457.72;6238438;22;20181;-59
2022/05/19 06:59:45;;;;;;;1.38;0.90;;;;;;;15.20;76.60;99449.84;6238784;22;20598;-59
2022/05/19 07:02:12;;;;;;;1.38;0.90;;;;;;;15.45;75.48;99455.03;6238541;22;20662;-59
2022/05/19 07:04:38;;;;;;;0.95;0.80;;;;;;;15.36;73.23;99461.75;6238754;22;20226;-59
2022/05/19 07:07:05;;;;;;;2.20;0.70;;;;;;;15.48;73.93;99463.47;6227610;22;20177;-59
2022/05/19 07:09:31;;;;;;;4.47;0.90;;;;;;;15.66;73.56;99461.28;6225945;22;20145;-59
2022/05/19 07:11:57;;;;;;;1.42;0.73;;;;;;;15.86;74.30;99463.31;6231943;22;20176;-59
2022/05/19 07:14:23;;;;;;;1.08;0.65;;;;;;;15.98;72.74;99458.00;6238520;23;20576;-59
2022/05/19 07:16:49;;;;;;;2.10;0.95;;;;;;;16.12;73.76;99460.44;6238516;22;20157;-60
2022/05/19 07:22:04;;;;;;;5.82;0.85;;;;;;;16.26;64.92;99467.25;6238684;23;20487;-59
2022/05/19 07:24:29;;;;;;;1.95;0.90;;;;;;;16.41;64.11;99466.97;6238267;22;20153;-59
2022/05/19 07:26:55;;;;;;;1.50;0.80;;;;;;;16.62;63.30;99464.50;6234265;22;20148;-59
2022/05/19 07:29:22;;;;;;;4.78;0.80;;;;;;;16.84;62.33;99469.75;6224970;22;20146;-59
2022/05/19 07:31:49;;;;;;;2.35;1.02;;;;;;;17.00;60.08;99467.59;6227355;22;20212;-60
2022/05/19 07:34:18;;;;;;;4.57;1.17;;;;;;;17.18;60.64;99468.75;6236929;22;20232;-60
2022/05/19 07:36:43;;;;;;;7.90;1.80;;;;;;;17.31;60.41;99465.06;6238311;22;20153;-59
2022/05/19 07:39:11;;;;;;;9.10;1.30;;;;;;;17.45;58.79;99472.69;6240357;22;20153;-59
2022/05/19 07:41:36;;;;;;;7.95;2.05;;;;;;;17.53;59.23;99469.44;6239999;22;20272;-59
2022/05/19 07:44:02;;;;;;;4.50;1.35;;;;;;;17.62;57.14;99472.19;6240245;22;20579;-59
2022/05/19 07:46:28;;;;;;;3.97;1.60;;;;;;;17.65;58.66;99473.69;6240305;22;20156;-59
2022/05/19 07:48:55;;;;;;;12.52;2.10;;;;;;;17.68;61.29;99469.06;6229919;22;20445;-59
2022/05/19 07:51:26;;;;;;;6.32;1.75;;;;;;;17.75;62.12;99466.78;6227548;22;20177;-59
2022/05/19 07:53:52;;;;;;;4.40;1.83;;;;;;;17.68;62.83;99469.06;6233237;23;20143;-59
2022/05/19 07:56:18;;;;;;;3.80;1.50;;;;;;;17.80;61.84;99475.09;6239917;22;20171;-60
2022/05/19 07:58:46;;;;;;;2.53;1.50;;;;;;;17.91;61.51;99475.91;6240102;22;20148;-59
2022/05/19 08:01:13;;;;;;;3.25;1.20;;;;;;;17.98;61.26;99473.59;6240050;22;20148;-59
2022/05/19 08:03:38;;;;;;;3.03;2.05;;;;;;;18.07;60.49;99471.06;6240082;22;20326;-60
2022/05/19 08:06:07;;;;;;;4.00;1.55;;;;;;;18.12;59.27;99470.69;6239935;23;20149;-59
2022/05/19 08:08:33;;;;;;;6.63;1.50;;;;;;;18.07;60.68;99470.25;6238348;22;20152;-59
2022/05/19 08:10:59;;;;;;;2.83;1.67;;;;;;;18.08;60.97;99467.47;6225546;22;20583;-60
2022/05/19 08:16:08;;;;;;;2.22;1.42;;;;;;;18.24;61.64;99467.88;6237401;23;20151;-59
2022/05/19 08:18:34;;;;;;;3.58;1.92;;;;;;;18.34;58.35;99467.97;6239613;22;20152;-59
2022/05/19 08:21:04;;;;;;;4.57;1.55;;;;;;;18.39;57.15;99464.03;6239936;22;20542;-59
2022/05/19 08:23:41;;;;;;;3.60;1.42;;;;;;;18.51;57.62;99470.84;6239649;22;20514;-59
2022/05/19 08:26:11;;;;;;;1.52;1.05;;;;;;;18.60;57.37;99470.06;6239911;22;20582;-58
2022/05/19 08:28:38;;;;;;;3.75;1.30;;;;;;;18.64;55.96;99468.00;6239705;22;20148;-58
2022/05/19 08:31:08;;;;;;;1.40;1.30;;;;;;;18.69;53.73;99469.31;6229239;22;20686;-58
2022/05/19 08:33:35;;;;;;;4.15;1.63;;;;;;;18.71;52.92;99466.56;6226900;22;20294;-58
2022/05/19 08:36:02;;;;;;;5.45;1.80;;;;;;;18.79;51.71;99470.19;6232731;22;20156;-58
2022/05/19 08:38:27;;;;;;;5.50;1.80;;;;;;;18.89;50.06;99472.84;6239584;22;20152;-58
2022/05/19 08:41:02;;;;;;;4.15;1.58;;;;;;;18.97;49.59;99465.16;6239780;22;20156;-59
2022/05/19 08:43:50;;;;;;;2.35;1.15;;;;;;;19.04;49.99;99471.53;6240159;22;20453;-58
2022/05/19 08:46:23;;;;;;;3.28;1.60;;;;;;;19.00;48.56;99472.78;6239425;22;20152;-59
2022/05/19 08:48:54;;;;;;;1.25;1.15;;;;;;;19.05;48.72;99465.34;6238898;22;20152;-59
2022/05/19 08:51:24;;;;;;;4.72;1.40;;;;;;;19.04;48.38;99471.53;6234107;22;20278;-59
2022/05/19 08:53:51;;;;;;;5.32;1.20;;;;;;;19.11;47.58;99467.44;6225805;22;20146;-59
2022/05/19 08:56:23;;;;;;;2.00;1.20;;;;;;;19.03;47.85;99462.84;6228786;22;20496;-59
2022/05/19 08:59:08;;;;;;;3.40;1.00;;;;;;;19.01;46.56;99469.19;6239569;22;20140;-59
2022/05/19 09:02:01;;;;;;;1.38;1.10;;;;;;;19.07;44.69;99472.09;6240089;22;20148;-59
2022/05/19 09:04:53;;;;;;;1.58;1.23;;;;;;;19.20;41.82;99472.72;6239355;23;20145;-60
2022/05/19 09:07:58;;;;;;;2.20;1.10;;;;;;;19.34;41.07;99466.25;6239809;22;20160;-59
2022/05/19 09:10:32;;;;;;;3.08;1.10;;;;;;;19.33;40.70;99462.81;6239516;22;20152;-60
2022/05/19 09:13:24;;;;;;;0.80;0.80;;;;;;;19.49;39.14;99470.19;6229796;22;20241;-60
2022/05/19 09:15:50;;;;;;;1.15;0.75;;;;;;;19.57;37.89;99473.78;6226578;22;20511;-60
2022/05/19 09:18:20;;;;;;;1.23;1.20;;;;;;;19.63;36.83;99477.66;6232974;22;20231;-60
2022/05/19 09:20:54;;;;;;;3.00;0.90;;;;;;;19.61;36.39;99472.56;6239682;22;20227;-59
2022/05/19 09:23:19;;;;;;;1.20;1.08;;;;;;;19.68;37.91;99462.34;6239323;22;20165;-60
2022/05/19 09:25:52;;;;;;;1.50;1.00;;;;;;;19.73;36.13;99463.59;6239439;22;20180;-60
2022/05/19 09:28:18;;;;;;;1.38;1.02;;;;;;;19.79;35.82;99464.84;6238905;22;20137;-60
2022/05/19 09:30:54;;;;;;;3.75;1.05;;;;;;;19.85;35.69;99466.91;6239067;22;20610;-60
2022/05/19 09:33:28;;;;;;;4.50;0.85;;;;;;;19.94;35.67;99461.66;6234418;22;20155;-60
2022/05/19 09:35:55;;;;;;;1.63;1.00;;;;;;;19.87;35.31;99450.06;6226182;22;20181;-60
2022/05/19 09:38:27;;;;;;;1.58;1.00;;;;;;;20.00;37.03;99458.47;6228329;22;20148;-59
2022/05/19 09:40:59;;;;;;;3.15;1.13;;;;;;;20.00;34.75;99461.09;6238631;22;20599;-60
2022/05/19 09:43:32;;;;;;;0.90;0.90;;;;;;;20.12;34.58;99453.97;6239454;22;20137;-60
2022/05/19 09:46:14;;;;;;;1.25;1.15;;;;;;;20.19;35.78;99449.78;6239090;22;20278;-60
2022/05/19 09:48:46;;;;;;;2.35;1.10;;;;;;;20.31;34.37;99446.88;6238790;22;20141;-60
2022/05/19 09:51:15;;;;;;;2.97;0.95;;;;;;;20.41;34.15;99446.88;6238876;22;20180;-60
2022/05/19 09:53:47;;;;;;;1.58;1.10;;;;;;;20.37;34.07;99442.84;6238738;22;20176;-60
2022/05/19 09:56:16;;;;;;;3.20;1.02;;;;;;;20.42;35.51;99445.88;6224688;22;20164;-59
2022/05/19 09:58:48;;;;;;;1.08;1.00;;;;;;;20.56;34.62;99438.38;6227285;22;20557;-60
2022/05/19 10:01:37;;;;;;;2.05;0.95;;;;;;;20.71;34.23;99430.84;6236194;22;20157;-60
2022/05/19 10:04:07;;;;;;;2.45;1.02;;;;;;;20.85;34.50;99430.38;6238590;22;20137;-60
2022/05/19 10:06:33;;;;;;;3.10;0.90;;;;;;;20.86;33.06;99432.06;6238964;22;20304;-60
2022/05/19 10:09:14;;;;;;;1.75;0.93;;;;;;;20.95;34.42;99434.69;6238572;22;20544;-60
2022/05/19 10:11:50;;;;;;;4.03;1.13;;;;;;;21.02;33.15;99424.38;6239132;22;20302;-60
2022/05/19 10:14:19;;;;;;;2.45;0.93;;;;;;;21.11;31.37;99416.47;6238880;22;20583;-60
2022/05/19 10:16:57;;;;;;;1.63;0.95;;;;;;;21.21;32.35;99424.31;6226051;22;20167;-60
2022/05/19 10:19:29;;;;;;;4.43;1.23;;;;;;;21.30;31.16;99423.41;6226672;22;20152;-60
2022/05/19 10:22:27;;;;;;;1.25;1.15;;;;;;;21.34;30.28;99419.50;6234190;23;20164;-60
2022/05/19 10:25:17;;;;;;;2.55;1.20;;;;;;;21.25;30.48;99407.22;6238834;22;20170;-60
2022/05/19 10:31:21;;;;;;;2.35;1.00;;;;;;;21.40;30.72;99401.28;6145730;23;20193;-60
2022/05/19 10:34:20;;;;;;;3.30;1.50;;;;;;;21.53;31.61;99395.69;6145909;23;20491;-60
2022/05/19 10:37:15;;;;;;;1.60;1.40;;;;;;;21.64;31.46;99398.09;6213985;23;20222;-60
2022/05/19 10:39:52;;;;;;;3.80;1.48;;;;;;;21.85;30.35;99403.94;6226468;22;20305;-60
2022/05/19 10:42:36;;;;;;;2.55;1.10;;;;;;;22.16;31.10;99406.00;6231276;22;20616;-60
2022/05/19 10:45:17;;;;;;;2.38;1.13;;;;;;;21.98;31.06;99391.19;6238951;22;20137;-60
2022/05/19 10:48:04;;;;;;;1.23;1.00;;;;;;;22.14;30.55;99393.94;6236877;23;20148;-60
2022/05/19 10:50:32;;;;;;;1.88;0.93;;;;;;;22.50;29.80;99391.06;6239027;22;20145;-60
2022/05/19 10:53:24;;;;;;;2.33;1.40;;;;;;;22.83;31.73;99397.34;6238682;22;20180;-60
2022/05/19 10:56:11;;;;;;;1.50;1.25;;;;;;;23.17;28.60;99398.19;6238558;22;20137;-60
2022/05/19 10:58:51;;;;;;;4.63;0.95;;;;;;;22.80;29.56;99389.75;6227741;22;20582;-60
2022/05/19 11:01:43;;;;;;;3.47;1.98;;;;;;;22.99;30.00;99397.41;6224131;23;20491;-61
2022/05/19 11:04:46;;;;;;;6.43;1.63;;;;;;;23.25;29.91;99392.94;6234258;22;20223;-60
2022/05/19 11:07:11;;;;;;;1.83;1.50;;;;;;;23.49;29.02;99396.44;6236838;23;20148;-60
2022/05/19 11:10:07;;;;;;;2.65;1.40;;;;;;;23.73;29.12;99383.28;6238681;22;20614;-60
2022/05/19 11:12:49;;;;;;;1.25;1.00;;;;;;;23.72;29.54;99386.91;6239452;22;20215;-60
2022/05/19 11:15:25;;;;;;;1.42;1.10;;;;;;;23.91;30.36;99388.44;6241166;22;20202;-61
2022/05/19 11:18:01;;;;;;;1.80;1.15;;;;;;;24.02;29.61;99382.81;6240541;22;20144;-60
2022/05/19 11:20:34;;;;;;;1.15;1.08;;;;;;;24.22;28.47;99374.38;6225986;22;20618;-60
2022/05/19 11:23:10;;;;;;;3.70;0.93;;;;;;;24.34;30.19;99367.72;6228685;22;20133;-60
2022/05/19 11:28:43;;;;;;;1.98;1.38;;;;;;;24.13;30.98;99362.13;6240537;23;20215;-60
2022/05/19 11:31:24;;;;;;;3.58;1.20;;;;;;;24.26;29.25;99357.97;6240501;22;20161;-60
2022/05/19 11:33:52;;;;;;;5.18;0.95;;;;;;;24.42;28.91;99354.47;6240253;22;20729;-61
2022/05/19 11:36:27;;;;;;;1.20;1.10;;;;;;;24.40;30.05;99356.47;6240318;22;20602;-62
2022/05/19 11:39:01;;;;;;;3.53;1.40;;;;;;;24.68;29.54;99350.63;6240413;22;20136;-60
2022/05/19 11:41:30;;;;;;;1.00;1.00;;;;;;;24.91;28.03;99361.31;6225829;22;20155;-60
2022/05/19 11:44:36;;;;;;;0.98;0.88;;;;;;;25.04;28.39;99357.09;6228443;22;20160;-60
2022/05/19 11:47:17;;;;;;;1.10;1.10;;;;;;;25.09;28.21;99352.09;6146161;23;20146;-60
2022/05/19 11:55:47;;;;;;;2.15;1.45;;;;;;;25.54;27.94;99336.25;6240270;23;20144;-60
2022/05/19 11:58:20;;;;;;;1.83;1.15;;;;;;;25.59;26.58;99341.88;6240045;22;20595;-60
2022/05/19 12:01:01;;;;;;;1.05;1.00;;;;;;;25.54;27.71;99336.25;6234603;22;20163;-60
2022/05/19 12:04:03;;;;;;;2.17;1.20;;;;;;;25.73;28.42;99327.81;6226946;22;20139;-60
2022/05/19 12:06:33;;;;;;;2.72;1.20;;;;;;;25.89;27.68;99327.69;6232572;23;20227;-61
2022/05/19 12:09:23;;;;;;;1.35;1.10;;;;;;;25.97;27.89;99327.66;6239728;22;20168;-60
2022/05/19 12:11:55;;;;;;;4.85;1.10;;;;;;;25.97;27.74;99319.72;6239646;22;20180;-61